Aeroporto :
LOGIN :

Iscrizione | Disclaimer

   EN    FR    IT 

 










Sommario :    VFR   VFR Marginale   IFR   IFR Intensivo   IFR Molto Intensivo
Visibilità : 
Base nubi : 
>= 8 km
>= 3000ft
5 / 8 km
1000 / 3000 ft
1500m / 5 km
500 / 1000 ft
800 / 1500m
200 / 500 ft
< 800m
< 200 ft
Simboli :   Temporali  Nebbia  Neve Forte  Precipitazioni Forti  Vento > 20 kt
SIGMETs :   Varie  Temporali  Ghiacco  Turbolenza  Onda orograficha  Ceneri Vulcaniche






- Altitudine del aeroporto : 1066 ft


EGOM - RAF Spadeadam

ULTIMO METAR :
  • 240620Z AUTO 02009KT 9999 OVC029/// 03/M02 Q1018

METARs OBSOLETI :
  • 240550Z AUTO 01008KT 9999 OVC032/// 03/M01 Q1019
  • 240520Z AUTO 36007KT 9999 FEW024/// OVC031/// 02/M01 Q1019
  • 240450Z AUTO 36004KT 9999 OVC024/// 02/M01 Q1019
  • 240420Z AUTO 03005KT 9999 OVC027/// 02/M01 Q1019
  • 240350Z AUTO 02006KT 9999 SCT030/// 02/M00 Q1019
  • 240320Z AUTO 02006KT 9999 NCD 01/M01 Q1019
  • 240250Z AUTO 02007KT 9999 SCT027/// 01/M01 Q1019
  • 240220Z AUTO 02009KT 9999 FEW034/// 02/M00 Q1020
  • 240120Z AUTO 03010KT 9999 OVC032/// 03/00 Q1020

Previsioni scadute.



MetMap, La meteo Aeronautica in un colpo d'occhio ! - Copyright ORBIFLY Dicembre 2007 - Disclaimer

ORBIFLY MET'MAP TEAM :

Programmazione e sviluppo : Alexandra Zaïnal
Concezione : Baudouin d'Aumeries
Supporto tecnico e logistico : Manuel Goepfert
Aiuto : Marc-Olivier Méhu
Aiuto per la traduzione : Arnaldo La Scala




FONTI E CREDITI :

   NOAA